sensor_id;sensor_type;location;lat;lon;timestamp;P1;durP1;ratioP1;P2;durP2;ratioP2
14153;SDS011;7157;53.144;7.570;2024-03-23T00:58:09;15.00;;;3.10;;
14153;SDS011;7157;53.144;7.570;2024-03-23T01:08:11;19.40;;;2.75;;
14153;SDS011;7157;53.144;7.570;2024-03-23T01:18:14;22.95;;;3.50;;
14153;SDS011;7157;53.144;7.570;2024-03-23T01:28:16;22.52;;;3.20;;
14153;SDS011;7157;53.144;7.570;2024-03-23T01:38:20;25.90;;;3.20;;
14153;SDS011;7157;53.144;7.570;2024-03-23T01:48:22;17.17;;;3.00;;
14153;SDS011;7157;53.144;7.570;2024-03-23T01:58:26;22.30;;;3.40;;
14153;SDS011;7157;53.144;7.570;2024-03-23T02:08:28;15.50;;;2.97;;
14153;SDS011;7157;53.144;7.570;2024-03-23T02:18:32;20.92;;;3.30;;
14153;SDS011;7157;53.144;7.570;2024-03-23T02:28:35;26.75;;;3.78;;
14153;SDS011;7157;53.144;7.570;2024-03-23T02:38:37;14.45;;;3.35;;
14153;SDS011;7157;53.144;7.570;2024-03-23T02:48:41;26.80;;;4.55;;
14153;SDS011;7157;53.144;7.570;2024-03-23T02:58:43;22.42;;;3.60;;
14153;SDS011;7157;53.144;7.570;2024-03-23T03:08:46;27.05;;;4.25;;
14153;SDS011;7157;53.144;7.570;2024-03-23T03:18:48;13.68;;;3.50;;
14153;SDS011;7157;53.144;7.570;2024-03-23T03:28:52;19.67;;;2.83;;
14153;SDS011;7157;53.144;7.570;2024-03-23T03:38:54;23.27;;;3.30;;
14153;SDS011;7157;53.144;7.570;2024-03-23T03:48:57;17.88;;;4.03;;
14153;SDS011;7157;53.144;7.570;2024-03-23T03:58:59;33.20;;;3.47;;
14153;SDS011;7157;53.144;7.570;2024-03-23T04:09:02;17.48;;;4.00;;
14153;SDS011;7157;53.144;7.570;2024-03-23T04:19:04;30.17;;;4.10;;
14153;SDS011;7157;53.144;7.570;2024-03-23T04:29:08;19.13;;;3.67;;
14153;SDS011;7157;53.144;7.570;2024-03-23T04:39:10;15.82;;;3.30;;
14153;SDS011;7157;53.144;7.570;2024-03-23T04:49:14;27.48;;;3.97;;
14153;SDS011;7157;53.144;7.570;2024-03-23T04:59:16;18.13;;;3.70;;
14153;SDS011;7157;53.144;7.570;2024-03-23T05:09:19;17.20;;;3.92;;
14153;SDS011;7157;53.144;7.570;2024-03-23T05:19:21;15.45;;;3.50;;
14153;SDS011;7157;53.144;7.570;2024-03-23T05:29:25;21.75;;;3.05;;
14153;SDS011;7157;53.144;7.570;2024-03-23T05:39:27;14.57;;;3.60;;
14153;SDS011;7157;53.144;7.570;2024-03-23T05:49:31;13.40;;;2.85;;
14153;SDS011;7157;53.144;7.570;2024-03-23T05:59:33;19.55;;;3.67;;
14153;SDS011;7157;53.144;7.570;2024-03-23T06:09:36;20.85;;;3.20;;
14153;SDS011;7157;53.144;7.570;2024-03-23T06:19:38;26.75;;;3.58;;
14153;SDS011;7157;53.144;7.570;2024-03-23T06:29:42;14.07;;;3.00;;
14153;SDS011;7157;53.144;7.570;2024-03-23T06:39:45;17.30;;;2.78;;
14153;SDS011;7157;53.144;7.570;2024-03-23T06:49:49;18.38;;;3.47;;
14153;SDS011;7157;53.144;7.570;2024-03-23T06:59:51;11.02;;;2.78;;
14153;SDS011;7157;53.144;7.570;2024-03-23T07:09:54;17.38;;;2.13;;
14153;SDS011;7157;53.144;7.570;2024-03-23T07:19:56;13.52;;;2.47;;
14153;SDS011;7157;53.144;7.570;2024-03-23T07:30:00;15.25;;;2.30;;
14153;SDS011;7157;53.144;7.570;2024-03-23T07:40:02;8.77;;;1.48;;
14153;SDS011;7157;53.144;7.570;2024-03-23T07:50:07;9.40;;;2.65;;
14153;SDS011;7157;53.144;7.570;2024-03-23T08:00:10;6.63;;;1.70;;
14153;SDS011;7157;53.144;7.570;2024-03-23T08:10:15;12.48;;;1.50;;
14153;SDS011;7157;53.144;7.570;2024-03-23T08:20:18;7.10;;;1.63;;
14153;SDS011;7157;53.144;7.570;2024-03-23T08:30:21;10.60;;;1.88;;
14153;SDS011;7157;53.144;7.570;2024-03-23T08:40:23;5.63;;;1.30;;
14153;SDS011;7157;53.144;7.570;2024-03-23T08:50:27;5.25;;;1.52;;
14153;SDS011;7157;53.144;7.570;2024-03-23T09:00:29;5.47;;;1.52;;
14153;SDS011;7157;53.144;7.570;2024-03-23T09:10:34;7.32;;;1.20;;
14153;SDS011;7157;53.144;7.570;2024-03-23T09:20:39;7.53;;;1.38;;
14153;SDS011;7157;53.144;7.570;2024-03-23T09:30:43;6.85;;;2.22;;
14153;SDS011;7157;53.144;7.570;2024-03-23T09:40:45;4.53;;;1.10;;
14153;SDS011;7157;53.144;7.570;2024-03-23T09:50:50;4.00;;;1.55;;
14153;SDS011;7157;53.144;7.570;2024-03-23T10:00:52;11.10;;;1.70;;
14153;SDS011;7157;53.144;7.570;2024-03-23T10:11:13;6.57;;;1.48;;
14153;SDS011;7157;53.144;7.570;2024-03-23T10:21:18;5.55;;;1.15;;
14153;SDS011;7157;53.144;7.570;2024-03-23T10:31:21;8.10;;;1.50;;
14153;SDS011;7157;53.144;7.570;2024-03-23T10:41:24;16.23;;;2.85;;
14153;SDS011;7157;53.144;7.570;2024-03-23T10:51:29;11.27;;;1.70;;
14153;SDS011;7157;53.144;7.570;2024-03-23T11:01:31;4.43;;;0.75;;
14153;SDS011;7157;53.144;7.570;2024-03-23T11:11:36;3.40;;;0.90;;
14153;SDS011;7157;53.144;7.570;2024-03-23T11:21:54;2.97;;;0.93;;
14153;SDS011;7157;53.144;7.570;2024-03-23T11:31:56;3.70;;;1.27;;
14153;SDS011;7157;53.144;7.570;2024-03-23T11:41:59;5.85;;;1.23;;
14153;SDS011;7157;53.144;7.570;2024-03-23T11:52:02;7.80;;;1.52;;
14153;SDS011;7157;53.144;7.570;2024-03-23T12:02:08;8.43;;;1.65;;
14153;SDS011;7157;53.144;7.570;2024-03-23T12:12:13;3.97;;;1.00;;
14153;SDS011;7157;53.144;7.570;2024-03-23T12:22:20;5.55;;;0.80;;
14153;SDS011;7157;53.144;7.570;2024-03-23T12:32:22;4.35;;;0.75;;
14153;SDS011;7157;53.144;7.570;2024-03-23T12:42:25;7.13;;;1.15;;
14153;SDS011;7157;53.144;7.570;2024-03-23T12:52:27;4.85;;;1.00;;
14153;SDS011;7157;53.144;7.570;2024-03-23T13:02:31;5.32;;;1.20;;
14153;SDS011;7157;53.144;7.570;2024-03-23T13:12:35;4.65;;;1.20;;
14153;SDS011;7157;53.144;7.570;2024-03-23T13:22:38;5.30;;;0.88;;
14153;SDS011;7157;53.144;7.570;2024-03-23T13:32:40;4.88;;;1.40;;
14153;SDS011;7157;53.144;7.570;2024-03-23T13:42:43;6.38;;;1.50;;
14153;SDS011;7157;53.144;7.570;2024-03-23T13:52:45;5.20;;;0.70;;
14153;SDS011;7157;53.144;7.570;2024-03-23T14:02:49;2.28;;;0.60;;
14153;SDS011;7157;53.144;7.570;2024-03-23T14:12:51;5.95;;;1.27;;
14153;SDS011;7157;53.144;7.570;2024-03-23T14:22:54;6.20;;;1.25;;
14153;SDS011;7157;53.144;7.570;2024-03-23T14:32:56;6.40;;;1.05;;
14153;SDS011;7157;53.144;7.570;2024-03-23T14:42:59;9.68;;;1.45;;
14153;SDS011;7157;53.144;7.570;2024-03-23T14:53:01;10.10;;;1.42;;
14153;SDS011;7157;53.144;7.570;2024-03-23T15:03:05;7.88;;;1.08;;
14153;SDS011;7157;53.144;7.570;2024-03-23T15:13:07;2.70;;;0.82;;
14153;SDS011;7157;53.144;7.570;2024-03-23T15:23:12;5.00;;;1.60;;
14153;SDS011;7157;53.144;7.570;2024-03-23T15:33:14;7.60;;;1.23;;
14153;SDS011;7157;53.144;7.570;2024-03-23T15:43:17;4.45;;;1.30;;
14153;SDS011;7157;53.144;7.570;2024-03-23T15:53:19;5.68;;;1.30;;
14153;SDS011;7157;53.144;7.570;2024-03-23T16:03:23;7.35;;;1.33;;
14153;SDS011;7157;53.144;7.570;2024-03-23T16:13:27;3.75;;;1.10;;
14153;SDS011;7157;53.144;7.570;2024-03-23T16:23:31;7.38;;;1.35;;
14153;SDS011;7157;53.144;7.570;2024-03-23T16:33:34;8.77;;;2.13;;
14153;SDS011;7157;53.144;7.570;2024-03-23T16:43:38;4.57;;;1.17;;
14153;SDS011;7157;53.144;7.570;2024-03-23T16:53:40;4.40;;;1.33;;
14153;SDS011;7157;53.144;7.570;2024-03-23T17:03:45;4.63;;;1.05;;
14153;SDS011;7157;53.144;7.570;2024-03-23T17:13:49;9.38;;;2.25;;
14153;SDS011;7157;53.144;7.570;2024-03-23T17:23:55;5.82;;;1.30;;
14153;SDS011;7157;53.144;7.570;2024-03-23T17:33:59;8.38;;;1.42;;
14153;SDS011;7157;53.144;7.570;2024-03-23T17:44:02;8.80;;;1.52;;
14153;SDS011;7157;53.144;7.570;2024-03-23T17:54:04;4.53;;;1.20;;
14153;SDS011;7157;53.144;7.570;2024-03-23T18:04:07;6.40;;;1.55;;
14153;SDS011;7157;53.144;7.570;2024-03-23T18:14:10;6.18;;;1.38;;
14153;SDS011;7157;53.144;7.570;2024-03-23T18:24:13;10.32;;;1.92;;
14153;SDS011;7157;53.144;7.570;2024-03-23T18:34:16;11.48;;;1.55;;
14153;SDS011;7157;53.144;7.570;2024-03-23T18:44:20;6.47;;;1.05;;
14153;SDS011;7157;53.144;7.570;2024-03-23T18:54:22;6.25;;;1.80;;
14153;SDS011;7157;53.144;7.570;2024-03-23T19:04:26;13.32;;;1.60;;
14153;SDS011;7157;53.144;7.570;2024-03-23T19:14:28;6.90;;;1.30;;
14153;SDS011;7157;53.144;7.570;2024-03-23T19:24:33;4.53;;;1.35;;
14153;SDS011;7157;53.144;7.570;2024-03-23T19:34:35;4.65;;;1.33;;
14153;SDS011;7157;53.144;7.570;2024-03-23T19:44:39;4.47;;;1.60;;
14153;SDS011;7157;53.144;7.570;2024-03-23T19:54:41;6.13;;;1.20;;
14153;SDS011;7157;53.144;7.570;2024-03-23T20:04:44;5.45;;;1.15;;
14153;SDS011;7157;53.144;7.570;2024-03-23T20:14:46;3.83;;;1.20;;
14153;SDS011;7157;53.144;7.570;2024-03-23T20:24:49;5.45;;;1.00;;
14153;SDS011;7157;53.144;7.570;2024-03-23T20:34:53;5.18;;;1.70;;
14153;SDS011;7157;53.144;7.570;2024-03-23T20:44:57;3.70;;;1.20;;
14153;SDS011;7157;53.144;7.570;2024-03-23T20:54:59;2.95;;;1.15;;
14153;SDS011;7157;53.144;7.570;2024-03-23T21:05:02;8.25;;;1.45;;
14153;SDS011;7157;53.144;7.570;2024-03-23T21:15:05;3.78;;;1.50;;
14153;SDS011;7157;53.144;7.570;2024-03-23T21:25:09;6.43;;;1.17;;
14153;SDS011;7157;53.144;7.570;2024-03-23T21:35:11;7.22;;;1.83;;
14153;SDS011;7157;53.144;7.570;2024-03-23T21:45:14;2.35;;;1.08;;
14153;SDS011;7157;53.144;7.570;2024-03-23T21:55:16;9.48;;;1.80;;
14153;SDS011;7157;53.144;7.570;2024-03-23T22:05:19;3.47;;;1.20;;
14153;SDS011;7157;53.144;7.570;2024-03-23T22:15:22;3.70;;;1.23;;
14153;SDS011;7157;53.144;7.570;2024-03-23T22:25:25;5.32;;;1.33;;
14153;SDS011;7157;53.144;7.570;2024-03-23T22:35:27;1.77;;;0.80;;
14153;SDS011;7157;53.144;7.570;2024-03-23T22:45:31;7.07;;;1.75;;
14153;SDS011;7157;53.144;7.570;2024-03-23T22:55:33;5.80;;;1.88;;
14153;SDS011;7157;53.144;7.570;2024-03-23T23:05:36;3.30;;;1.25;;
14153;SDS011;7157;53.144;7.570;2024-03-23T23:15:39;2.45;;;1.20;;
14153;SDS011;7157;53.144;7.570;2024-03-23T23:25:45;7.70;;;1.52;;
14153;SDS011;7157;53.144;7.570;2024-03-23T23:35:47;8.27;;;1.95;;
14153;SDS011;7157;53.144;7.570;2024-03-23T23:45:51;5.72;;;1.80;;
14153;SDS011;7157;53.144;7.570;2024-03-23T23:55:53;4.28;;;1.90;;
